createdAt,value
2018-04-29T00:00:28.835Z,9.47
2018-04-29T00:02:57.123Z,11.97
2018-04-29T00:05:25.423Z,10.23
2018-04-29T00:07:52.939Z,11.83
2018-04-29T00:10:20.550Z,11.03
2018-04-29T00:12:48.066Z,12.90
2018-04-29T00:15:15.682Z,11.93
2018-04-29T00:17:43.196Z,11.93
2018-04-29T00:20:10.736Z,15.10
2018-04-29T00:22:38.253Z,11.57
2018-04-29T00:25:05.777Z,12.67
2018-04-29T00:27:33.310Z,12.70
2018-04-29T00:30:00.844Z,12.70
2018-04-29T00:32:28.364Z,15.10
2018-04-29T00:34:55.960Z,16.53
2018-04-29T00:37:23.464Z,18.00
2018-04-29T00:39:51.021Z,17.90
2018-04-29T00:42:18.559Z,17.30
2018-04-29T00:44:46.079Z,15.50
2018-04-29T00:47:14.383Z,17.90
2018-04-29T00:49:41.909Z,14.70
2018-04-29T00:52:10.310Z,14.57
2018-04-29T00:54:37.874Z,17.13
2018-04-29T00:57:05.424Z,18.23
2018-04-29T00:59:33.701Z,19.50
2018-04-29T01:02:01.984Z,23.20
2018-04-29T01:04:30.367Z,24.07
2018-04-29T01:06:57.892Z,25.47
2018-04-29T01:09:25.423Z,25.77
2018-04-29T01:11:52.955Z,29.90
2018-04-29T01:14:20.516Z,29.70
2018-04-29T01:16:48.035Z,29.53
2018-04-29T01:19:15.561Z,31.03
2018-04-29T01:21:43.103Z,30.13
2018-04-29T01:24:10.613Z,31.27
2018-04-29T01:26:38.921Z,33.17
2018-04-29T01:29:07.302Z,32.00
2018-04-29T01:31:35.571Z,33.60
2018-04-29T01:34:03.872Z,34.10
2018-04-29T01:36:31.391Z,33.73
2018-04-29T01:38:58.903Z,36.67
2018-04-29T01:41:26.427Z,34.07
2018-04-29T01:43:54.719Z,33.23
2018-04-29T01:46:22.225Z,33.10
2018-04-29T01:48:49.755Z,33.17
2018-04-29T01:51:17.259Z,33.50
2018-04-29T01:53:45.593Z,33.17
2018-04-29T01:56:13.149Z,33.43
2018-04-29T01:58:40.687Z,34.27
2018-04-29T02:01:08.971Z,30.13
2018-04-29T02:03:37.261Z,31.13
2018-04-29T02:06:04.767Z,29.97
2018-04-29T02:08:32.493Z,30.17
2018-04-29T02:11:00.016Z,33.00
2018-04-29T02:13:28.294Z,32.53
2018-04-29T02:15:56.583Z,29.13
2018-04-29T02:18:24.877Z,31.57
2018-04-29T02:20:53.151Z,34.23
2018-04-29T02:23:20.679Z,30.83
2018-04-29T02:25:49.017Z,30.00
2018-04-29T02:28:16.537Z,33.10
2018-04-29T02:30:44.822Z,34.50
2018-04-29T02:33:12.388Z,35.30
2018-04-29T02:35:39.899Z,32.70
2018-04-29T02:38:07.426Z,35.23
2018-04-29T02:40:34.957Z,34.83
2018-04-29T02:43:03.252Z,33.00
2018-04-29T02:45:30.822Z,34.47
2018-04-29T02:47:58.378Z,35.13
2018-04-29T02:50:25.884Z,33.73
2018-04-29T02:52:53.483Z,34.67
2018-04-29T02:55:21.788Z,34.13
2018-04-29T02:57:49.306Z,33.50
2018-04-29T03:00:17.590Z,32.27
2018-04-29T03:02:45.897Z,29.50
2018-04-29T03:05:13.411Z,31.73
2018-04-29T03:07:41.008Z,34.33
2018-04-29T03:10:08.539Z,32.43
2018-04-29T03:12:36.815Z,34.13
2018-04-29T03:15:05.117Z,34.37
2018-04-29T03:17:33.403Z,34.17
2018-04-29T03:20:00.965Z,35.70
2018-04-29T03:22:28.473Z,36.03
2018-04-29T03:24:56.096Z,34.60
2018-04-29T03:27:23.612Z,37.90
2018-04-29T03:29:51.133Z,40.70
2018-04-29T03:32:18.660Z,38.97
2018-04-29T03:34:46.180Z,42.30
2018-04-29T03:37:13.693Z,47.80
2018-04-29T03:39:41.266Z,49.53
2018-04-29T03:42:08.789Z,47.90
2018-04-29T03:44:36.365Z,47.73
2018-04-29T03:47:03.895Z,49.87
2018-04-29T03:49:31.492Z,53.53
2018-04-29T03:51:59.149Z,48.80
2018-04-29T03:54:26.704Z,49.20
2018-04-29T03:57:00.066Z,48.97
2018-04-29T03:59:39.580Z,47.87
2018-04-29T04:02:18.979Z,47.90
2018-04-29T04:04:47.362Z,45.73
2018-04-29T04:07:14.874Z,46.67
2018-04-29T04:09:42.464Z,45.97
2018-04-29T04:12:09.930Z,44.30
2018-04-29T04:14:38.222Z,45.63
2018-04-29T04:17:05.734Z,45.77
2018-04-29T04:19:33.352Z,45.80
2018-04-29T04:22:00.862Z,43.50
2018-04-29T04:24:28.458Z,41.03
2018-04-29T04:26:56.860Z,41.37
2018-04-29T04:29:24.405Z,40.40
2018-04-29T04:31:51.968Z,38.57
2018-04-29T04:34:19.646Z,34.67
2018-04-29T04:36:47.157Z,35.57
2018-04-29T04:39:14.680Z,35.03
2018-04-29T04:41:42.196Z,32.13
2018-04-29T04:44:10.472Z,33.73
2018-04-29T04:46:38.764Z,34.57
2018-04-29T04:49:06.292Z,36.30
2018-04-29T04:51:33.805Z,36.70
2018-04-29T04:54:01.362Z,36.23
2018-04-29T04:56:28.888Z,39.43
2018-04-29T04:58:57.301Z,38.27
2018-04-29T05:01:24.861Z,36.87
2018-04-29T05:03:52.389Z,38.13
2018-04-29T05:06:20.684Z,35.03
2018-04-29T05:08:48.196Z,41.73
2018-04-29T05:11:15.749Z,42.47
2018-04-29T05:13:43.274Z,36.60
2018-04-29T05:16:10.786Z,41.60
2018-04-29T05:18:38.327Z,38.97
2018-04-29T05:21:05.859Z,34.57
2018-04-29T05:23:33.379Z,40.23
2018-04-29T05:26:01.683Z,41.37
2018-04-29T05:28:29.195Z,40.33
2018-04-29T05:30:56.699Z,45.63
2018-04-29T05:33:24.992Z,39.07
2018-04-29T05:35:52.519Z,41.73
2018-04-29T05:38:20.827Z,37.97
2018-04-29T05:40:48.387Z,41.90
2018-04-29T05:43:15.935Z,46.20
2018-04-29T05:45:44.335Z,42.33
2018-04-29T05:48:11.871Z,45.77
2018-04-29T05:50:40.148Z,45.23
2018-04-29T05:53:08.426Z,47.77
2018-04-29T05:55:36.736Z,45.63
2018-04-29T05:58:04.273Z,45.63
2018-04-29T06:00:31.794Z,45.67
2018-04-29T06:02:59.318Z,45.53
2018-04-29T06:05:26.992Z,51.57
2018-04-29T06:07:54.500Z,47.73
2018-04-29T06:10:22.904Z,45.10
2018-04-29T06:12:50.428Z,45.53
2018-04-29T06:15:20.164Z,47.70
2018-04-29T06:17:47.730Z,45.23
2018-04-29T06:20:15.270Z,51.53
2018-04-29T06:22:43.554Z,57.23
2018-04-29T06:25:11.152Z,60.10
2018-04-29T06:27:38.703Z,63.77
2018-04-29T06:30:06.254Z,62.47
2018-04-29T06:32:33.780Z,64.97
2018-04-29T06:35:04.872Z,63.40
2018-04-29T06:37:32.427Z,67.50
2018-04-29T06:39:59.964Z,65.70
2018-04-29T06:42:28.261Z,71.83
2018-04-29T06:44:55.822Z,62.53
2018-04-29T06:47:23.359Z,62.03
2018-04-29T06:49:51.677Z,66.37
2018-04-29T06:52:19.213Z,70.93
2018-04-29T06:54:46.747Z,80.33
2018-04-29T06:57:15.100Z,82.90
2018-04-29T06:59:42.615Z,79.67
2018-04-29T07:02:10.142Z,83.00
2018-04-29T07:04:37.671Z,81.40
2018-04-29T07:07:05.191Z,96.17
2018-04-29T07:09:32.720Z,85.77
2018-04-29T07:12:00.238Z,93.23
2018-04-29T07:14:27.869Z,88.37
2018-04-29T07:16:55.403Z,94.83
2018-04-29T07:19:23.009Z,83.00
2018-04-29T07:21:50.530Z,80.10
2018-04-29T07:24:18.823Z,84.73
2018-04-29T07:26:47.108Z,91.50
2018-04-29T07:29:14.640Z,94.20
2018-04-29T07:31:42.173Z,87.90
2018-04-29T07:34:09.735Z,85.00
2018-04-29T07:36:37.228Z,93.47
2018-04-29T07:39:05.539Z,100.10
2018-04-29T07:41:33.064Z,65.20
2018-04-29T07:44:01.364Z,85.30
2018-04-29T07:46:29.759Z,77.83
2018-04-29T07:48:57.321Z,82.17
2018-04-29T07:51:24.850Z,77.97
2018-04-29T07:53:53.143Z,69.57
2018-04-29T07:56:20.664Z,56.77
2018-04-29T07:58:48.276Z,65.87
2018-04-29T08:01:15.811Z,71.30
2018-04-29T08:03:44.128Z,73.87
2018-04-29T08:06:11.680Z,80.23
2018-04-29T08:08:39.211Z,69.60
2018-04-29T08:11:07.495Z,70.90
2018-04-29T08:13:35.781Z,68.23
2018-04-29T08:16:03.340Z,76.93
2018-04-29T08:18:30.892Z,75.37
2018-04-29T08:20:59.165Z,79.20
2018-04-29T08:23:27.475Z,90.00
2018-04-29T08:25:54.998Z,73.30
2018-04-29T08:28:23.312Z,80.93
2018-04-29T08:30:50.845Z,68.37
2018-04-29T08:33:19.125Z,77.20
2018-04-29T08:35:47.443Z,81.13
2018-04-29T08:38:14.985Z,85.13
2018-04-29T08:40:42.543Z,80.23
2018-04-29T08:43:10.082Z,81.63
2018-04-29T08:45:38.386Z,76.47
2018-04-29T08:48:05.913Z,59.57
2018-04-29T08:50:34.195Z,72.07
2018-04-29T08:53:02.489Z,64.43
2018-04-29T08:55:30.020Z,79.23
2018-04-29T08:57:58.304Z,79.87
2018-04-29T09:00:26.637Z,89.33
2018-04-29T09:02:54.155Z,75.27
2018-04-29T09:05:22.437Z,71.07
2018-04-29T09:07:49.961Z,70.93
2018-04-29T09:10:17.558Z,71.53
2018-04-29T09:12:46.552Z,58.80
2018-04-29T09:15:14.077Z,56.20
2018-04-29T09:17:41.610Z,74.87
2018-04-29T09:20:09.147Z,64.00
2018-04-29T09:22:36.686Z,56.90
2018-04-29T09:25:04.200Z,52.30
2018-04-29T09:27:31.713Z,58.07
2018-04-29T09:29:59.283Z,57.30
2018-04-29T09:32:26.890Z,50.63
2018-04-29T09:34:54.404Z,63.93
2018-04-29T09:37:21.940Z,64.33
2018-04-29T09:39:50.244Z,67.03
2018-04-29T09:42:17.760Z,54.93
2018-04-29T09:44:46.059Z,50.93
2018-04-29T09:47:14.460Z,54.40
2018-04-29T09:49:41.983Z,47.20
2018-04-29T09:52:10.283Z,48.43
2018-04-29T09:54:37.848Z,41.77
2018-04-29T09:57:05.364Z,53.33
2018-04-29T09:59:32.907Z,42.10
2018-04-29T10:02:02.208Z,43.97
2018-04-29T10:04:29.730Z,47.07
2018-04-29T10:06:57.279Z,43.80
2018-04-29T10:09:24.892Z,45.57
2018-04-29T10:11:52.390Z,38.90
2018-04-29T10:14:20.678Z,41.60
2018-04-29T10:16:48.963Z,29.33
2018-04-29T10:19:16.483Z,42.53
2018-04-29T10:21:44.032Z,39.23
2018-04-29T10:24:11.672Z,33.97
2018-04-29T10:26:39.187Z,39.00
2018-04-29T10:29:07.498Z,40.20
2018-04-29T10:31:35.025Z,37.47
2018-04-29T10:34:03.305Z,38.50
2018-04-29T10:36:31.592Z,37.50
2018-04-29T10:38:59.890Z,37.00
2018-04-29T10:41:27.428Z,38.27
2018-04-29T10:43:55.720Z,37.30
2018-04-29T10:46:23.251Z,35.63
2018-04-29T10:48:51.540Z,40.13
2018-04-29T10:51:19.830Z,35.43
2018-04-29T10:53:47.348Z,41.17
2018-04-29T10:56:14.868Z,35.87
2018-04-29T10:58:42.414Z,35.17
2018-04-29T11:01:09.921Z,39.43
2018-04-29T11:03:37.431Z,36.70
2018-04-29T11:06:04.963Z,37.67
2018-04-29T11:08:32.490Z,38.83
2018-04-29T11:11:00.049Z,36.40
2018-04-29T11:13:27.590Z,35.60
2018-04-29T11:15:55.111Z,32.33
2018-04-29T11:18:23.397Z,35.40
2018-04-29T11:20:51.709Z,35.63
2018-04-29T11:23:19.239Z,34.13
2018-04-29T11:25:47.540Z,40.73
2018-04-29T11:28:15.072Z,33.80
2018-04-29T11:30:43.360Z,35.00
2018-04-29T11:33:11.654Z,36.07
2018-04-29T11:35:39.172Z,36.57
2018-04-29T11:38:06.687Z,35.07
2018-04-29T11:40:34.294Z,36.03
2018-04-29T11:43:01.756Z,36.53
2018-04-29T11:45:30.034Z,38.03
2018-04-29T11:47:57.555Z,37.87
2018-04-29T11:50:25.097Z,33.90
2018-04-29T11:52:52.640Z,40.80
2018-04-29T11:55:20.208Z,37.00
2018-04-29T11:57:47.750Z,35.97
2018-04-29T12:00:16.027Z,38.73
2018-04-29T12:02:44.310Z,40.53
2018-04-29T12:05:12.599Z,37.97
2018-04-29T12:07:40.123Z,37.67
2018-04-29T12:10:07.647Z,39.40
2018-04-29T12:12:35.163Z,40.20
2018-04-29T12:15:03.454Z,42.50
2018-04-29T12:17:30.976Z,44.90
2018-04-29T12:19:58.509Z,43.40
2018-04-29T12:22:26.033Z,44.27
2018-04-29T12:24:53.553Z,45.73
2018-04-29T12:27:21.080Z,47.63
2018-04-29T12:29:48.603Z,43.43
2018-04-29T12:32:16.881Z,44.67
2018-04-29T12:34:45.163Z,45.23
2018-04-29T12:37:13.454Z,46.70
2018-04-29T12:39:40.971Z,46.37
2018-04-29T12:42:08.522Z,45.40
2018-04-29T12:44:36.039Z,43.10
2018-04-29T12:47:03.563Z,40.40
2018-04-29T12:49:31.869Z,40.57
2018-04-29T12:51:59.384Z,41.40
2018-04-29T12:54:26.899Z,41.57
2018-04-29T12:56:54.426Z,41.60
2018-04-29T12:59:22.719Z,40.27
2018-04-29T13:01:50.241Z,38.93
2018-04-29T13:04:17.762Z,37.30
2018-04-29T13:06:45.288Z,39.10
2018-04-29T13:09:13.575Z,35.33
2018-04-29T13:11:41.116Z,35.73
2018-04-29T13:14:09.411Z,36.03
2018-04-29T13:16:37.693Z,37.53
2018-04-29T13:19:05.219Z,35.97
2018-04-29T13:21:32.750Z,31.80
2018-04-29T13:24:00.383Z,34.83
2018-04-29T13:26:27.945Z,33.77
2018-04-29T13:28:55.497Z,33.80
2018-04-29T13:31:23.022Z,32.37
2018-04-29T13:33:50.581Z,33.10
2018-04-29T13:36:18.100Z,33.10
2018-04-29T13:38:45.632Z,33.10
2018-04-29T13:41:13.922Z,33.70
2018-04-29T13:43:41.447Z,32.93
2018-04-29T13:46:08.977Z,34.90
2018-04-29T13:48:36.512Z,31.90
2018-04-29T13:51:04.036Z,31.57
2018-04-29T13:53:32.319Z,30.33
2018-04-29T13:56:00.614Z,30.70
2018-04-29T13:58:28.130Z,29.00
2018-04-29T14:00:55.697Z,28.73
2018-04-29T14:03:23.271Z,29.77
2018-04-29T14:05:50.760Z,28.40
2018-04-29T14:08:18.277Z,27.27
2018-04-29T14:10:45.802Z,30.33
2018-04-29T14:13:13.313Z,26.93
2018-04-29T14:15:41.595Z,26.60
2018-04-29T14:18:09.919Z,28.40
2018-04-29T14:20:37.471Z,27.80
2018-04-29T14:23:04.992Z,28.80
2018-04-29T14:25:33.308Z,27.47
2018-04-29T14:28:00.833Z,27.67
2018-04-29T14:30:29.131Z,28.43
2018-04-29T14:32:56.657Z,28.73
2018-04-29T14:35:24.170Z,26.00
2018-04-29T14:37:51.688Z,24.23
2018-04-29T14:40:19.989Z,28.90
2018-04-29T14:42:47.506Z,29.77
2018-04-29T14:45:15.026Z,27.30
2018-04-29T14:47:42.682Z,29.00
2018-04-29T14:50:10.254Z,29.60
2018-04-29T14:52:37.858Z,26.87
2018-04-29T14:55:06.152Z,26.33
2018-04-29T14:57:34.430Z,26.30
2018-04-29T15:00:02.720Z,27.70
2018-04-29T15:02:30.268Z,26.73
2018-04-29T15:04:58.588Z,27.10
2018-04-29T15:07:26.120Z,25.87
2018-04-29T15:09:53.675Z,24.40
2018-04-29T15:12:21.207Z,26.27
2018-04-29T15:14:49.493Z,27.43
2018-04-29T15:17:17.796Z,26.30
2018-04-29T15:19:49.204Z,25.90
2018-04-29T15:22:16.731Z,25.80
2018-04-29T15:24:44.264Z,26.90
2018-04-29T15:27:11.789Z,25.63
2018-04-29T15:29:39.307Z,23.40
2018-04-29T15:32:06.835Z,23.93
2018-04-29T15:34:34.347Z,24.10
2018-04-29T15:37:01.875Z,23.27
2018-04-29T15:39:29.533Z,25.10
2018-04-29T15:41:57.051Z,25.23
2018-04-29T15:44:25.368Z,27.10
2018-04-29T15:46:52.897Z,24.67
2018-04-29T15:49:21.180Z,24.33
2018-04-29T15:51:49.469Z,24.33
2018-04-29T15:54:17.006Z,24.90
2018-04-29T15:56:45.286Z,25.00
2018-04-29T15:59:13.571Z,26.80
2018-04-29T16:01:41.876Z,24.30
2018-04-29T16:04:09.398Z,24.97
2018-04-29T16:06:37.677Z,27.30
2018-04-29T16:09:05.983Z,24.50
2018-04-29T16:11:33.505Z,27.40
2018-04-29T16:14:01.028Z,24.97
2018-04-29T16:16:28.571Z,25.90
2018-04-29T16:18:56.097Z,26.83
2018-04-29T16:21:24.383Z,26.93
2018-04-29T16:23:52.681Z,25.80
2018-04-29T16:26:20.207Z,27.13
2018-04-29T16:28:48.494Z,25.73
2018-04-29T16:31:16.782Z,26.87
2018-04-29T16:33:44.320Z,26.97
2018-04-29T16:36:12.633Z,27.70
2018-04-29T16:38:40.184Z,26.53
2018-04-29T16:41:07.722Z,27.43
2018-04-29T16:43:36.051Z,30.17
2018-04-29T16:46:03.578Z,30.13
2018-04-29T16:48:31.090Z,28.53
2018-04-29T16:50:58.610Z,30.40
2018-04-29T16:53:26.151Z,28.43
2018-04-29T16:55:54.550Z,28.67
2018-04-29T16:58:22.099Z,30.00
2018-04-29T17:00:49.678Z,30.53
2018-04-29T17:03:17.194Z,30.23
2018-04-29T17:05:45.494Z,28.93
2018-04-29T17:08:13.035Z,30.63
2018-04-29T17:10:41.323Z,29.40
2018-04-29T17:13:09.609Z,31.67
2018-04-29T17:15:37.143Z,30.23
2018-04-29T17:18:05.429Z,29.70
2018-04-29T17:20:33.716Z,31.20
2018-04-29T17:23:01.242Z,32.97
2018-04-29T17:25:28.762Z,32.57
2018-04-29T17:27:56.277Z,35.30
2018-04-29T17:30:24.593Z,36.53
2018-04-29T17:32:52.128Z,36.17
2018-04-29T17:35:20.418Z,36.77
2018-04-29T17:37:47.950Z,38.57
2018-04-29T17:40:15.474Z,40.97
2018-04-29T17:42:42.997Z,36.97
2018-04-29T17:45:10.545Z,45.10
2018-04-29T17:47:38.948Z,41.70
2018-04-29T17:50:06.488Z,51.20
2018-04-29T17:52:34.790Z,52.40
2018-04-29T17:55:02.313Z,56.67
2018-04-29T17:57:30.613Z,51.93
2018-04-29T17:59:58.908Z,58.70
2018-04-29T18:02:26.428Z,50.47
2018-04-29T18:04:53.951Z,52.17
2018-04-29T18:07:21.499Z,57.63
2018-04-29T18:09:49.027Z,49.40
2018-04-29T18:12:17.310Z,56.40
2018-04-29T18:14:44.861Z,56.57
2018-04-29T18:17:13.149Z,55.13
2018-04-29T18:19:40.668Z,52.90
2018-04-29T18:22:08.195Z,53.97
2018-04-29T18:24:35.716Z,54.20
2018-04-29T18:27:04.009Z,52.00
2018-04-29T18:29:31.555Z,59.37
2018-04-29T18:31:59.837Z,59.20
2018-04-29T18:34:29.983Z,55.17
2018-04-29T18:36:57.524Z,54.77
2018-04-29T18:39:25.803Z,54.70
2018-04-29T18:41:53.380Z,63.33
2018-04-29T18:44:20.927Z,59.13
2018-04-29T18:46:48.455Z,63.87
2018-04-29T18:49:15.981Z,61.10
2018-04-29T18:51:43.509Z,60.67
2018-04-29T18:54:11.048Z,58.90
2018-04-29T18:56:39.341Z,61.63
2018-04-29T18:59:06.869Z,62.73
2018-04-29T19:01:34.403Z,76.40
2018-04-29T19:04:01.938Z,74.63
2018-04-29T19:06:29.485Z,73.63
2018-04-29T19:08:57.016Z,76.20
2018-04-29T19:11:25.322Z,77.40
2018-04-29T19:13:52.860Z,77.23
2018-04-29T19:16:21.154Z,77.80
2018-04-29T19:18:48.680Z,56.50
2018-04-29T19:21:16.206Z,51.67
2018-04-29T19:23:43.729Z,51.93
2018-04-29T19:26:12.080Z,57.10
2018-04-29T19:28:40.441Z,60.47
2018-04-29T19:31:07.980Z,70.97
2018-04-29T19:33:35.539Z,52.50
2018-04-29T19:36:03.062Z,58.47
2018-04-29T19:38:31.353Z,47.57
2018-04-29T19:40:58.893Z,43.37
2018-04-29T19:43:27.199Z,43.33
2018-04-29T19:45:54.713Z,52.53
2018-04-29T19:48:23.011Z,57.23
2018-04-29T19:50:51.310Z,45.43
2018-04-29T19:53:18.820Z,53.00
2018-04-29T19:55:46.336Z,56.07
2018-04-29T19:58:13.870Z,54.30
2018-04-29T20:00:42.151Z,51.27
2018-04-29T20:03:09.669Z,40.47
2018-04-29T20:05:37.202Z,28.53
2018-04-29T20:08:04.754Z,23.67
2018-04-29T20:10:32.282Z,28.17
2018-04-29T20:13:00.586Z,28.27
2018-04-29T20:15:28.104Z,38.53
2018-04-29T20:17:56.414Z,31.80
2018-04-29T20:20:23.960Z,21.90
2018-04-29T20:22:51.500Z,34.67
2018-04-29T20:25:19.056Z,32.23
2018-04-29T20:27:46.605Z,34.37
2018-04-29T20:30:14.133Z,37.70
2018-04-29T20:32:48.564Z,36.10
2018-04-29T20:35:16.087Z,37.87
2018-04-29T20:37:43.618Z,44.93
2018-04-29T20:40:11.148Z,32.33
2018-04-29T20:42:38.686Z,50.47
2018-04-29T20:45:06.200Z,38.57
2018-04-29T20:47:34.499Z,46.17
2018-04-29T20:50:02.026Z,45.20
2018-04-29T20:52:29.550Z,43.33
2018-04-29T20:54:57.095Z,48.73
2018-04-29T20:57:24.627Z,49.43
2018-04-29T20:59:52.925Z,49.57
2018-04-29T21:02:20.455Z,51.83
2018-04-29T21:04:48.767Z,52.00
2018-04-29T21:07:16.280Z,48.97
2018-04-29T21:09:43.816Z,56.30
2018-04-29T21:12:11.339Z,54.27
2018-04-29T21:14:38.856Z,54.80
2018-04-29T21:17:06.383Z,38.63
2018-04-29T21:19:33.897Z,55.27
2018-04-29T21:22:02.176Z,43.00
2018-04-29T21:24:30.580Z,51.03
2018-04-29T21:26:58.109Z,42.37
2018-04-29T21:29:26.395Z,40.97
2018-04-29T21:31:54.691Z,48.50
2018-04-29T21:34:22.211Z,45.00
2018-04-29T21:36:50.508Z,44.83
2018-04-29T21:39:18.927Z,40.33
2018-04-29T21:41:46.451Z,40.33
2018-04-29T21:44:14.739Z,42.73
2018-04-29T21:46:43.025Z,45.77
2018-04-29T21:49:10.547Z,43.70
2018-04-29T21:51:38.061Z,42.60
2018-04-29T21:54:05.595Z,35.20
2018-04-29T21:56:33.893Z,45.63
2018-04-29T21:59:01.409Z,45.90
2018-04-29T22:01:28.934Z,39.17
2018-04-29T22:03:56.455Z,49.20
2018-04-29T22:06:24.747Z,45.33
2018-04-29T22:08:52.363Z,45.97
2018-04-29T22:11:19.885Z,51.77
2018-04-29T22:13:47.420Z,52.50
2018-04-29T22:16:14.966Z,50.43
2018-04-29T22:18:43.250Z,57.70
2018-04-29T22:21:11.535Z,56.33
2018-04-29T22:23:39.092Z,58.77
2018-04-29T22:26:07.379Z,61.03
2018-04-29T22:28:34.901Z,71.03
2018-04-29T22:31:02.433Z,78.77
2018-04-29T22:33:29.953Z,76.67
2018-04-29T22:35:57.473Z,72.47
2018-04-29T22:38:25.017Z,71.93
2018-04-29T22:40:52.659Z,72.53
2018-04-29T22:43:20.179Z,68.63
2018-04-29T22:45:48.487Z,70.40
2018-04-29T22:48:16.025Z,64.73
2018-04-29T22:50:44.333Z,65.43
2018-04-29T22:53:11.866Z,60.93
2018-04-29T22:55:40.162Z,58.93
2018-04-29T22:58:07.684Z,55.83
2018-04-29T23:00:35.203Z,45.47
2018-04-29T23:03:02.720Z,49.57
2018-04-29T23:05:31.020Z,49.17
2018-04-29T23:07:58.558Z,54.03
2018-04-29T23:10:26.848Z,55.00
2018-04-29T23:12:54.380Z,54.30
2018-04-29T23:15:21.988Z,52.07
2018-04-29T23:17:49.508Z,56.93
2018-04-29T23:20:17.803Z,53.73
2018-04-29T23:22:46.118Z,51.87
2018-04-29T23:25:13.647Z,52.03
2018-04-29T23:27:41.168Z,56.33
2018-04-29T23:30:08.704Z,54.77
2018-04-29T23:32:36.214Z,46.50
2018-04-29T23:35:04.496Z,48.47
2018-04-29T23:37:32.796Z,50.53
2018-04-29T23:40:00.326Z,40.50
2018-04-29T23:42:28.614Z,52.50
2018-04-29T23:44:56.945Z,47.17
2018-04-29T23:47:24.470Z,47.90
2018-04-29T23:49:51.996Z,41.70
2018-04-29T23:52:20.307Z,47.03
2018-04-29T23:54:47.833Z,46.40
2018-04-29T23:57:15.360Z,38.63
2018-04-29T23:59:42.895Z,37.97
